24 Datensätze sind 1 Tag. Aufzeichnung ab 07. Oktober 2014.
Werte (Summe von Anzahl und Position darf nicht größer sein als mögliche Datensätze).
Anzahl:
Position: Summe:
\ 22089 Datensätze möglich.
  20 letzte Aufzeichnungen
gezeigte Daten 20 ab Position 1    Summe der Auswahl = 21
28.06.2017 / 12:29 Uhr bis 29.06.2017 / 07:29 Uhr
Regenmenge 0 Liter

Datum/Zeit Temp. Taupunkt Luftfeuchte Wind speed Wind böhe Wind Temp. Regen Summe Luftdruck
29.06.2017 | 08:29 Uhr 18.8C 16.4C 86% 0.0 kmh 0.3kmh 18.6C 0.0mm 972.2236mBar/hPa
29.06.2017 | 07:29 Uhr 18.5C 16.3C 87% 0.0 kmh 0.2kmh 18.0C 0.0mm 971.9111mBar/hPa
29.06.2017 | 06:29 Uhr 18.4C 16.2C 87% 0.0 kmh 0.0kmh 17.9C 0.0mm 972.2861mBar/hPa
29.06.2017 | 05:29 Uhr 18.1C 16.1C 88% 0.0 kmh 0.0kmh 17.8C 0.0mm 972.5986mBar/hPa
29.06.2017 | 04:29 Uhr 17.9C 15.9C 88% 0.0 kmh 0.0kmh 17.3C 0.0mm 973.1611mBar/hPa
29.06.2017 | 03:29 Uhr 17.7C 15.7C 88% 0.0 kmh 0.0kmh 17.0C 0.0mm 973.9111mBar/hPa
29.06.2017 | 02:29 Uhr 17.2C 15.0C 87% 0.0 kmh 0.0kmh 16.3C 0.0mm 974.2861mBar/hPa
29.06.2017 | 01:29 Uhr 16.9C 14.4C 85% 0.0 kmh 0.0kmh 15.8C 0.0mm 974.6611mBar/hPa
29.06.2017 | 00:29 Uhr 16.8C 14.1C 84% 0.0 kmh 0.0kmh 15.3C 0.0mm 975.2236mBar/hPa
28.06.2017 | 23:29 Uhr 17.1C 13.6C 80% 0.0 kmh 0.0kmh 15.2C 0.0mm 975.7236mBar/hPa
28.06.2017 | 22:29 Uhr 17.7C 14.2C 80% 0.0 kmh 0.0kmh 15.5C 0.0mm 976.1611mBar/hPa
28.06.2017 | 21:29 Uhr 18.4C 14.5C 78% 0.0 kmh 0.0kmh 16.3C 0.0mm 976.4736mBar/hPa
28.06.2017 | 20:29 Uhr 19.6C 15.3C 76% 0.0 kmh 0.0kmh 17.4C 0.0mm 976.9111mBar/hPa
28.06.2017 | 19:29 Uhr 21.2C 16.2C 73% 0.0 kmh 0.0kmh 19.3C 0.0mm 976.9111mBar/hPa
28.06.2017 | 18:29 Uhr 22.7C 16.9C 70% 0.0 kmh 0.0kmh 22.2C 0.0mm 977.4736mBar/hPa
28.06.2017 | 17:29 Uhr 22.8C 17.0C 70% 0.0 kmh 0.1kmh 24.5C 0.0mm 978.4111mBar/hPa
28.06.2017 | 16:29 Uhr 22.1C 17.7C 76% 8.1 kmh 0.1kmh 22.0C 0.0mm 978.7861mBar/hPa
28.06.2017 | 15:29 Uhr 22.4C 17.5C 74% 4.2 kmh 0.5kmh 20.2C 0.0mm 979.4111mBar/hPa
28.06.2017 | 14:29 Uhr 25.1C 17.6C 63% 0.0 kmh 0.9kmh 25.0C 0.0mm 978.5361mBar/hPa
28.06.2017 | 13:29 Uhr 25.1C 17.6C 63% 0.2 kmh 1.0kmh 24.3C 0.0mm 979.0361mBar/hPa